Time,TemperatureF,DewpointF,PressureIn,WindDirection,WindDirectionDegrees,WindSpeedMPH,WindSpeedGustMPH,Humidity,HourlyPrecipIn,Conditions,Clouds,dailyrainin,SoftwareType,DateUTC
2013-02-03 00:05:00,31.6,19.0,30.25,SE,126,0.0,-999.0,60,-99.99,,,0.00,weatherlink.com 1.10,2013-02-03 07:05:00,
2013-02-03 00:20:00,31.0,19.0,30.24,SE,126,0.0,-999.0,62,-99.99,,,0.00,weatherlink.com 1.10,2013-02-03 07:20:00,
2013-02-03 00:35:00,30.1,19.0,30.23,SE,126,0.0,-999.0,64,-99.99,,,0.00,weatherlink.com 1.10,2013-02-03 07:35:00,
2013-02-03 00:50:00,29.4,19.0,30.24,SE,126,0.0,-999.0,64,-99.99,,,0.00,weatherlink.com 1.10,2013-02-03 07:50:00,
2013-02-03 01:05:00,28.8,18.0,30.24,SE,126,0.0,-999.0,65,-99.99,,,0.00,weatherlink.com 1.10,2013-02-03 08:05:00,
2013-02-03 01:20:00,28.2,18.0,30.23,SE,126,0.0,-999.0,66,-99.99,,,0.00,weatherlink.com 1.10,2013-02-03 08:20:00,
2013-02-03 01:35:00,27.8,17.0,30.23,SE,126,0.0,-999.0,65,-99.99,,,0.00,weatherlink.com 1.10,2013-02-03 08:35:00,
2013-02-03 01:50:00,27.3,17.0,30.23,SE,126,0.0,-999.0,65,-99.99,,,0.00,weatherlink.com 1.10,2013-02-03 08:50:00,
2013-02-03 02:05:00,27.0,17.0,30.22,SE,126,0.0,-999.0,66,-99.99,,,0.00,weatherlink.com 1.10,2013-02-03 09:05:00,
2013-02-03 02:20:00,27.2,18.0,30.22,SE,126,0.0,-999.0,67,-99.99,,,0.00,weatherlink.com 1.10,2013-02-03 09:20:00,
2013-02-03 02:35:00,27.3,18.0,30.22,SE,124,0.0,-999.0,67,-99.99,,,0.00,weatherlink.com 1.10,2013-02-03 09:35:00,
2013-02-03 02:51:00,27.9,18.0,30.21,SE,126,0.0,-999.0,66,-99.99,,,0.00,weatherlink.com 1.10,2013-02-03 09:51:00,
2013-02-03 03:05:00,28.4,18.0,30.21,SE,124,0.0,-999.0,66,-99.99,,,0.00,weatherlink.com 1.10,2013-02-03 10:05:00,
2013-02-03 03:20:00,28.4,18.0,30.20,SE,126,0.0,-999.0,66,-99.99,,,0.00,weatherlink.com 1.10,2013-02-03 10:20:00,
2013-02-03 03:35:00,28.5,18.0,30.19,SE,126,0.0,-999.0,64,-99.99,,,0.00,weatherlink.com 1.10,2013-02-03 10:35:00,
2013-02-03 03:50:00,28.4,18.0,30.19,SE,126,0.0,-999.0,65,-99.99,,,0.00,weatherlink.com 1.10,2013-02-03 10:50:00,
2013-02-03 04:05:00,28.4,18.0,30.18,SE,126,0.0,-999.0,65,-99.99,,,0.00,weatherlink.com 1.10,2013-02-03 11:05:00,
2013-02-03 04:20:00,28.8,18.0,30.19,SE,126,0.0,-999.0,65,-99.99,,,0.00,weatherlink.com 1.10,2013-02-03 11:20:00,
2013-02-03 04:35:00,29.7,18.0,30.19,SE,126,0.0,-999.0,62,-99.99,,,0.00,weatherlink.com 1.10,2013-02-03 11:35:00,
2013-02-03 04:51:00,29.8,18.0,30.18,SE,126,0.0,-999.0,61,-99.99,,,0.00,weatherlink.com 1.10,2013-02-03 11:51:00,
2013-02-03 05:05:00,29.8,18.0,30.18,SE,126,0.0,-999.0,61,-99.99,,,0.00,weatherlink.com 1.10,2013-02-03 12:05:00,
2013-02-03 05:20:00,29.4,18.0,30.21,SE,126,0.0,-999.0,62,-99.99,,,0.00,weatherlink.com 1.10,2013-02-03 12:20:00,
2013-02-03 05:35:00,29.1,18.0,30.21,SE,126,0.0,-999.0,63,-99.99,,,0.00,weatherlink.com 1.10,2013-02-03 12:35:00,
2013-02-03 05:51:00,28.4,18.0,30.20,SE,126,0.0,-999.0,64,-99.99,,,0.00,weatherlink.com 1.10,2013-02-03 12:51:00,
2013-02-03 06:05:00,27.6,17.0,30.21,SE,126,0.0,-999.0,65,-99.99,,,0.00,weatherlink.com 1.10,2013-02-03 13:05:00,
2013-02-03 06:21:00,26.9,17.0,30.22,SE,126,0.0,-999.0,66,-99.99,,,0.00,weatherlink.com 1.10,2013-02-03 13:21:00,
2013-02-03 06:36:00,26.3,17.0,30.22,SE,126,0.0,-999.0,67,-99.99,,,0.00,weatherlink.com 1.10,2013-02-03 13:36:00,
2013-02-03 06:52:00,25.8,17.0,30.23,SE,126,0.0,-999.0,69,-99.99,,,0.00,weatherlink.com 1.10,2013-02-03 13:52:00,
2013-02-03 07:06:00,25.4,17.0,30.23,SE,126,0.0,-999.0,70,-99.99,,,0.00,weatherlink.com 1.10,2013-02-03 14:06:00,
2013-02-03 07:21:00,25.1,17.0,30.25,SE,126,0.0,-999.0,70,-99.99,,,0.00,weatherlink.com 1.10,2013-02-03 14:21:00,
2013-02-03 07:36:00,25.0,17.0,30.25,SE,126,0.0,-999.0,70,-99.99,,,0.00,weatherlink.com 1.10,2013-02-03 14:36:00,
2013-02-03 07:51:00,25.3,17.0,30.25,SE,126,0.0,-999.0,71,-99.99,,,0.00,weatherlink.com 1.10,2013-02-03 14:51:00,
2013-02-03 08:06:00,26.3,18.0,30.24,SE,124,0.0,-999.0,71,-99.99,,,0.00,weatherlink.com 1.10,2013-02-03 15:06:00,
2013-02-03 08:21:00,28.8,19.0,30.25,SE,126,0.0,-999.0,66,-99.99,,,0.00,weatherlink.com 1.10,2013-02-03 15:21:00,
2013-02-03 08:36:00,32.4,19.0,30.24,SE,126,0.0,-999.0,59,-99.99,,,0.00,weatherlink.com 1.10,2013-02-03 15:36:00,
2013-02-03 08:51:00,34.4,19.0,30.22,SE,126,0.0,-999.0,53,-99.99,,,0.00,weatherlink.com 1.10,2013-02-03 15:51:00,
2013-02-03 09:06:00,35.6,19.0,30.22,SE,126,1.0,-999.0,51,-99.99,,,0.00,weatherlink.com 1.10,2013-02-03 16:06:00,
2013-02-03 09:21:00,36.3,18.0,30.21,NNE,14,0.0,-999.0,48,-99.99,,,0.00,weatherlink.com 1.10,2013-02-03 16:21:00,
2013-02-03 09:36:00,37.3,18.0,30.20,North,0,0.0,-999.0,46,-99.99,,,0.00,weatherlink.com 1.10,2013-02-03 16:36:00,
2013-02-03 09:51:00,38.3,19.0,30.19,North,357,0.0,-999.0,45,-99.99,,,0.00,weatherlink.com 1.10,2013-02-03 16:51:00,
2013-02-03 10:06:00,39.2,18.0,30.19,North,0,0.0,-999.0,43,-99.99,,,0.00,weatherlink.com 1.10,2013-02-03 17:06:00,
2013-02-03 10:21:00,40.3,18.0,30.20,North,350,0.0,-999.0,40,-99.99,,,0.00,weatherlink.com 1.10,2013-02-03 17:21:00,
2013-02-03 10:36:00,41.8,17.0,30.18,North,350,0.0,-999.0,37,-99.99,,,0.00,weatherlink.com 1.10,2013-02-03 17:36:00,
2013-02-03 10:51:00,43.2,17.0,30.16,North,350,0.0,-999.0,35,-99.99,,,0.00,weatherlink.com 1.10,2013-02-03 17:51:00,
2013-02-03 11:06:00,44.3,17.0,30.15,ESE,113,0.0,-999.0,33,-99.99,,,0.00,weatherlink.com 1.10,2013-02-03 18:06:00,
2013-02-03 11:21:00,45.5,17.0,30.15,ESE,116,0.0,-999.0,32,-99.99,,,0.00,weatherlink.com 1.10,2013-02-03 18:21:00,
2013-02-03 11:36:00,46.5,17.0,30.14,SE,134,0.0,-999.0,31,-99.99,,,0.00,weatherlink.com 1.10,2013-02-03 18:36:00,
2013-02-03 11:51:00,47.3,16.0,30.13,SE,134,0.0,-999.0,29,-99.99,,,0.00,weatherlink.com 1.10,2013-02-03 18:51:00,
2013-02-03 12:06:00,47.9,16.0,30.11,SE,134,0.0,-999.0,28,-99.99,,,0.00,weatherlink.com 1.10,2013-02-03 19:06:00,
2013-02-03 12:21:00,48.8,17.0,30.12,SE,134,0.0,-999.0,28,-99.99,,,0.00,weatherlink.com 1.10,2013-02-03 19:21:00,
2013-02-03 12:36:00,49.8,17.0,30.09,SE,134,0.0,-999.0,27,-99.99,,,0.00,weatherlink.com 1.10,2013-02-03 19:36:00,
2013-02-03 12:52:00,51.0,17.0,30.08,SE,134,0.0,-999.0,26,-99.99,,,0.00,weatherlink.com 1.10,2013-02-03 19:52:00,
2013-02-03 13:06:00,51.6,17.0,30.05,North,0,0.0,-999.0,25,-99.99,,,0.00,weatherlink.com 1.10,2013-02-03 20:06:00,
2013-02-03 13:21:00,51.6,17.0,30.05,North,0,0.0,-999.0,25,-99.99,,,0.00,weatherlink.com 1.10,2013-02-03 20:21:00,
2013-02-03 13:36:00,51.6,17.0,30.05,East,99,0.0,-999.0,25,-99.99,,,0.00,weatherlink.com 1.10,2013-02-03 20:36:00,
2013-02-03 13:51:00,51.6,16.0,30.04,ESE,114,0.0,-999.0,24,-99.99,,,0.00,weatherlink.com 1.10,2013-02-03 20:51:00,
2013-02-03 14:06:00,52.2,15.0,30.02,South,169,0.0,-999.0,23,-99.99,,,0.00,weatherlink.com 1.10,2013-02-03 21:06:00,
2013-02-03 14:21:00,52.9,15.0,30.01,South,169,0.0,-999.0,22,-99.99,,,0.00,weatherlink.com 1.10,2013-02-03 21:21:00,
2013-02-03 14:37:00,52.6,15.0,30.00,South,169,0.0,-999.0,22,-99.99,,,0.00,weatherlink.com 1.10,2013-02-03 21:37:00,
2013-02-03 14:52:00,52.8,15.0,29.99,South,169,0.0,-999.0,22,-99.99,,,0.00,weatherlink.com 1.10,2013-02-03 21:52:00,
2013-02-03 15:07:00,52.6,15.0,29.98,South,169,0.0,-999.0,22,-99.99,,,0.00,weatherlink.com 1.10,2013-02-03 22:07:00,
2013-02-03 15:21:00,52.5,14.0,29.98,South,169,0.0,-999.0,22,-99.99,,,0.00,weatherlink.com 1.10,2013-02-03 22:21:00,
2013-02-03 15:37:00,52.6,15.0,29.97,South,169,0.0,-999.0,22,-99.99,,,0.00,weatherlink.com 1.10,2013-02-03 22:37:00,
2013-02-03 15:52:00,53.5,14.0,29.97,South,169,0.0,-999.0,21,-99.99,,,0.00,weatherlink.com 1.10,2013-02-03 22:52:00,
2013-02-03 16:07:00,54.2,15.0,29.95,South,169,0.0,-999.0,21,-99.99,,,0.00,weatherlink.com 1.10,2013-02-03 23:07:00,
2013-02-03 16:22:00,54.2,15.0,29.94,South,169,0.0,-999.0,21,-99.99,,,0.00,weatherlink.com 1.10,2013-02-03 23:22:00,
2013-02-03 16:37:00,54.1,15.0,29.93,South,169,0.0,-999.0,21,-99.99,,,0.00,weatherlink.com 1.10,2013-02-03 23:37:00,
2013-02-03 16:52:00,53.5,15.0,29.93,South,169,0.0,-999.0,22,-99.99,,,0.00,weatherlink.com 1.10,2013-02-03 23:52:00,
2013-02-03 17:07:00,53.2,17.0,29.93,South,169,0.0,-999.0,24,-99.99,,,0.00,weatherlink.com 1.10,2013-02-04 00:07:00,
2013-02-03 17:22:00,-999.0,-99.9,29.94,North,-999,-999.0,-999.0,-999,-99.99,,,0.00,weatherlink.com 1.10,2013-02-04 00:22:00,
2013-02-03 17:37:00,50.7,17.0,30.05,South,169,0.0,-999.0,26,-99.99,,,0.00,weatherlink.com 1.10,2013-02-04 00:37:00,
2013-02-03 17:52:00,49.2,16.0,29.96,South,169,0.0,-999.0,27,-99.99,,,0.00,weatherlink.com 1.10,2013-02-04 00:52:00,
2013-02-03 18:07:00,48.9,18.0,29.97,South,169,0.0,-999.0,29,-99.99,,,0.00,weatherlink.com 1.10,2013-02-04 01:07:00,
2013-02-03 18:22:00,49.6,23.0,29.98,NW,323,0.0,-999.0,35,-99.99,,,0.00,weatherlink.com 1.10,2013-02-04 01:22:00,
2013-02-03 18:37:00,49.6,26.0,29.98,NW,305,1.0,-999.0,40,-99.99,,,0.00,weatherlink.com 1.10,2013-02-04 01:37:00,
2013-02-03 18:52:00,49.5,27.0,29.98,NW,325,2.0,-999.0,42,-99.99,,,0.00,weatherlink.com 1.10,2013-02-04 01:52:00,
2013-02-03 19:07:00,48.9,27.0,29.99,NW,318,1.0,-999.0,43,-99.99,,,0.00,weatherlink.com 1.10,2013-02-04 02:07:00,
2013-02-03 19:22:00,48.5,27.0,29.99,NW,326,0.0,-999.0,44,-99.99,,,0.00,weatherlink.com 1.10,2013-02-04 02:22:00,
2013-02-03 19:37:00,48.0,27.0,29.99,NW,316,0.0,-999.0,44,-99.99,,,0.00,weatherlink.com 1.10,2013-02-04 02:37:00,
2013-02-03 19:52:00,47.7,27.0,29.99,NW,309,0.0,-999.0,45,-99.99,,,0.00,weatherlink.com 1.10,2013-02-04 02:52:00,
2013-02-03 20:07:00,47.4,26.0,29.99,NW,326,0.0,-999.0,44,-99.99,,,0.00,weatherlink.com 1.10,2013-02-04 03:07:00,
2013-02-03 20:22:00,47.4,26.0,29.95,NNW,339,0.0,-999.0,44,-99.99,,,0.00,weatherlink.com 1.10,2013-02-04 03:22:00,
2013-02-03 20:37:00,47.4,26.0,29.95,NW,325,0.0,-999.0,43,-99.99,,,0.00,weatherlink.com 1.10,2013-02-04 03:37:00,
2013-02-03 20:52:00,47.3,26.0,29.96,NW,305,0.0,-999.0,43,-99.99,,,0.00,weatherlink.com 1.10,2013-02-04 03:52:00,
2013-02-03 21:07:00,47.3,26.0,29.96,NNW,332,0.0,-999.0,43,-99.99,,,0.00,weatherlink.com 1.10,2013-02-04 04:07:00,
2013-02-03 21:22:00,47.0,26.0,29.95,NNW,336,0.0,-999.0,44,-99.99,,,0.00,weatherlink.com 1.10,2013-02-04 04:22:00,
2013-02-03 21:37:00,46.8,26.0,29.94,NNW,336,0.0,-999.0,44,-99.99,,,0.00,weatherlink.com 1.10,2013-02-04 04:37:00,
2013-02-03 21:52:00,46.5,25.0,29.94,NNW,336,0.0,-999.0,44,-99.99,,,0.00,weatherlink.com 1.10,2013-02-04 04:52:00,
2013-02-03 22:07:00,46.4,25.0,29.95,NNW,336,0.0,-999.0,44,-99.99,,,0.00,weatherlink.com 1.10,2013-02-04 05:07:00,
2013-02-03 22:22:00,46.0,26.0,29.93,NNW,336,0.0,-999.0,46,-99.99,,,0.00,weatherlink.com 1.10,2013-02-04 05:22:00,
2013-02-03 22:37:00,45.5,26.0,29.92,NNW,336,0.0,-999.0,46,-99.99,,,0.00,weatherlink.com 1.10,2013-02-04 05:37:00,
2013-02-03 22:52:00,45.1,25.0,29.93,NNW,336,1.0,-999.0,46,-99.99,,,0.00,weatherlink.com 1.10,2013-02-04 05:52:00,
2013-02-03 23:07:00,45.5,25.0,29.93,North,349,0.0,-999.0,44,-99.99,,,0.00,weatherlink.com 1.10,2013-02-04 06:07:00,
2013-02-03 23:22:00,45.8,24.0,29.89,NNW,335,0.0,-999.0,43,-99.99,,,0.00,weatherlink.com 1.10,2013-02-04 06:22:00,
2013-02-03 23:37:00,45.7,25.0,29.89,NW,322,0.0,-999.0,44,-99.99,,,0.00,weatherlink.com 1.10,2013-02-04 06:37:00,
2013-02-03 23:52:00,45.4,24.0,29.89,NW,322,0.0,-999.0,44,-99.99,,,0.00,weatherlink.com 1.10,2013-02-04 06:52:00,